createdAt,value
2018-05-16T00:01:13.348Z,9.70
2018-05-16T00:03:40.770Z,8.20
2018-05-16T00:06:08.197Z,8.93
2018-05-16T00:08:35.617Z,9.85
2018-05-16T00:11:03.087Z,11.20
2018-05-16T00:13:30.506Z,12.10
2018-05-16T00:15:57.942Z,11.60
2018-05-16T00:18:25.381Z,11.38
2018-05-16T00:20:52.804Z,10.55
2018-05-16T00:23:20.334Z,11.85
2018-05-16T00:25:48.506Z,13.15
2018-05-16T00:28:15.991Z,12.55
2018-05-16T00:30:43.413Z,13.10
2018-05-16T00:33:10.834Z,13.45
2018-05-16T00:35:38.299Z,13.15
2018-05-16T00:38:06.466Z,13.70
2018-05-16T00:40:34.653Z,14.48
2018-05-16T00:43:02.837Z,14.27
2018-05-16T00:45:31.034Z,13.10
2018-05-16T00:47:58.518Z,14.20
2018-05-16T00:50:25.987Z,15.27
2018-05-16T00:52:53.393Z,15.68
2018-05-16T00:55:20.916Z,15.20
2018-05-16T00:57:48.399Z,13.05
2018-05-16T01:00:16.569Z,12.70
2018-05-16T01:02:44.750Z,12.07
2018-05-16T01:05:12.997Z,12.32
2018-05-16T01:07:40.419Z,12.40
2018-05-16T01:10:07.840Z,11.20
2018-05-16T01:12:35.263Z,12.10
2018-05-16T01:15:02.740Z,12.23
2018-05-16T01:17:30.151Z,12.05
2018-05-16T01:19:57.585Z,13.07
2018-05-16T01:22:24.992Z,12.13
2018-05-16T01:24:52.518Z,13.25
2018-05-16T01:27:19.946Z,13.43
2018-05-16T01:29:47.373Z,12.10
2018-05-16T01:32:14.785Z,12.75
2018-05-16T01:34:42.294Z,12.37
2018-05-16T01:37:09.714Z,12.25
2018-05-16T01:39:37.137Z,12.52
2018-05-16T01:42:04.562Z,12.52
2018-05-16T01:44:31.989Z,14.38
2018-05-16T01:46:59.438Z,13.05
2018-05-16T01:49:26.848Z,12.13
2018-05-16T01:51:54.268Z,13.80
2018-05-16T01:54:21.690Z,13.57
2018-05-16T01:56:49.208Z,13.35
2018-05-16T01:59:16.636Z,13.10
2018-05-16T02:01:44.064Z,13.13
2018-05-16T02:04:11.477Z,11.68
2018-05-16T02:06:38.900Z,12.95
2018-05-16T02:09:06.366Z,11.80
2018-05-16T02:11:33.838Z,12.73
2018-05-16T02:14:02.002Z,10.45
2018-05-16T02:16:30.189Z,9.80
2018-05-16T02:18:58.397Z,9.20
2018-05-16T02:21:26.586Z,10.10
2018-05-16T02:23:54.057Z,10.15
2018-05-16T02:26:21.519Z,9.57
2018-05-16T02:28:48.996Z,10.10
2018-05-16T02:31:17.173Z,9.68
2018-05-16T02:33:44.589Z,9.98
2018-05-16T02:36:12.026Z,9.38
2018-05-16T02:38:39.446Z,8.80
2018-05-16T02:41:06.963Z,8.77
2018-05-16T02:43:35.126Z,8.40
2018-05-16T02:46:03.314Z,9.65
2018-05-16T02:48:31.617Z,10.45
2018-05-16T02:50:59.041Z,11.23
2018-05-16T02:53:26.470Z,10.40
2018-05-16T02:55:53.903Z,9.25
2018-05-16T02:58:22.092Z,12.70
2018-05-16T03:00:49.512Z,14.15
2018-05-16T03:03:16.969Z,12.88
2018-05-16T03:05:45.254Z,15.52
2018-05-16T03:08:13.413Z,14.70
2018-05-16T03:10:41.611Z,15.95
2018-05-16T03:13:09.789Z,15.45
2018-05-16T03:15:37.988Z,14.07
2018-05-16T03:18:05.476Z,14.60
2018-05-16T03:20:33.645Z,15.13
2018-05-16T03:23:01.065Z,17.90
2018-05-16T03:25:28.599Z,16.67
2018-05-16T03:27:56.770Z,17.60
2018-05-16T03:30:24.229Z,18.52
2018-05-16T03:32:53.263Z,18.37
2018-05-16T03:35:21.446Z,18.55
2018-05-16T03:37:48.870Z,18.48
2018-05-16T03:40:16.297Z,18.27
2018-05-16T03:42:43.712Z,20.20
2018-05-16T03:45:11.137Z,20.05
2018-05-16T03:47:38.561Z,19.67
2018-05-16T03:50:06.762Z,19.90
2018-05-16T03:52:34.945Z,19.08
2018-05-16T03:55:03.138Z,18.23
2018-05-16T03:57:43.326Z,18.23
2018-05-16T04:00:22.769Z,18.60
2018-05-16T04:03:02.094Z,18.92
2018-05-16T04:05:29.521Z,18.60
2018-05-16T04:07:56.933Z,18.77
2018-05-16T04:10:24.362Z,18.62
2018-05-16T04:12:51.784Z,17.85
2018-05-16T04:15:19.992Z,18.23
2018-05-16T04:17:48.157Z,18.90
2018-05-16T04:20:16.350Z,19.50
2018-05-16T04:22:44.562Z,18.58
2018-05-16T04:25:11.969Z,18.60
2018-05-16T04:27:39.397Z,19.05
2018-05-16T04:30:06.817Z,19.10
2018-05-16T04:32:34.255Z,18.40
2018-05-16T04:35:01.666Z,20.00
2018-05-16T04:37:29.087Z,18.20
2018-05-16T04:39:56.501Z,18.17
2018-05-16T04:42:24.702Z,18.30
2018-05-16T04:44:52.885Z,16.48
2018-05-16T04:47:21.097Z,15.68
2018-05-16T04:49:48.568Z,17.83
2018-05-16T04:52:16.757Z,16.65
2018-05-16T04:54:44.216Z,15.10
2018-05-16T04:57:11.649Z,14.60
2018-05-16T04:59:39.165Z,15.40
2018-05-16T05:02:06.594Z,14.07
2018-05-16T05:04:34.109Z,13.45
2018-05-16T05:07:02.278Z,14.20
2018-05-16T05:09:29.731Z,15.68
2018-05-16T05:11:57.928Z,14.68
2018-05-16T05:14:26.118Z,13.73
2018-05-16T05:16:54.328Z,12.10
2018-05-16T05:19:21.740Z,12.75
2018-05-16T05:21:49.266Z,11.48
2018-05-16T05:24:17.432Z,12.07
2018-05-16T05:26:45.744Z,11.05
2018-05-16T05:29:13.909Z,11.25
2018-05-16T05:31:42.115Z,11.52
2018-05-16T05:34:09.590Z,11.18
2018-05-16T05:36:37.757Z,11.18
2018-05-16T05:39:05.962Z,10.18
2018-05-16T05:41:33.364Z,10.23
2018-05-16T05:44:00.789Z,9.88
2018-05-16T05:46:28.209Z,8.90
2018-05-16T05:48:55.721Z,8.25
2018-05-16T05:51:23.138Z,7.90
2018-05-16T05:53:50.574Z,8.45
2018-05-16T05:56:17.984Z,8.48
2018-05-16T05:58:45.516Z,8.02
2018-05-16T06:01:12.925Z,7.37
2018-05-16T06:03:40.460Z,6.90
2018-05-16T06:06:07.873Z,7.80
2018-05-16T06:08:35.292Z,7.90
2018-05-16T06:11:02.699Z,8.68
2018-05-16T06:13:30.229Z,7.03
2018-05-16T06:15:57.654Z,8.38
2018-05-16T06:18:25.070Z,8.48
2018-05-16T06:20:52.488Z,7.32
2018-05-16T06:23:19.913Z,8.25
2018-05-16T06:25:47.321Z,6.95
2018-05-16T06:28:14.747Z,7.20
2018-05-16T06:30:42.162Z,7.00
2018-05-16T06:33:09.685Z,8.43
2018-05-16T06:35:37.106Z,8.30
2018-05-16T06:38:04.530Z,7.20
2018-05-16T06:40:31.939Z,7.75
2018-05-16T06:42:59.363Z,7.87
2018-05-16T06:45:26.837Z,7.05
2018-05-16T06:47:54.988Z,7.22
2018-05-16T06:50:23.177Z,7.53
2018-05-16T06:52:51.355Z,6.43
2018-05-16T06:55:18.776Z,7.15
2018-05-16T06:57:46.189Z,7.70
2018-05-16T07:00:13.613Z,7.12
2018-05-16T07:02:41.024Z,7.72
2018-05-16T07:05:08.450Z,6.12
2018-05-16T07:07:35.924Z,6.75
2018-05-16T07:10:03.345Z,7.53
2018-05-16T07:12:30.753Z,6.15
2018-05-16T07:14:58.172Z,5.90
2018-05-16T07:17:25.689Z,5.25
2018-05-16T07:19:53.114Z,5.60
2018-05-16T07:22:20.530Z,4.62
2018-05-16T07:24:47.991Z,4.97
2018-05-16T07:27:15.400Z,5.22
2018-05-16T07:29:42.812Z,4.90
2018-05-16T07:32:10.998Z,4.65
2018-05-16T07:34:39.202Z,5.35
2018-05-16T07:37:06.696Z,4.87
2018-05-16T07:39:34.105Z,4.80
2018-05-16T07:42:01.568Z,4.75
2018-05-16T07:44:28.961Z,4.45
2018-05-16T07:46:57.212Z,4.40
2018-05-16T07:49:25.325Z,4.70
2018-05-16T07:51:52.741Z,4.40
2018-05-16T07:54:20.156Z,4.90
2018-05-16T07:56:47.674Z,4.50
2018-05-16T07:59:15.076Z,4.90
2018-05-16T08:01:42.504Z,5.10
2018-05-16T08:04:09.922Z,4.53
2018-05-16T08:06:37.350Z,4.87
2018-05-16T08:09:05.312Z,4.45
2018-05-16T08:11:33.495Z,4.40
2018-05-16T08:14:01.674Z,4.18
2018-05-16T08:16:29.886Z,4.53
2018-05-16T08:18:57.300Z,4.32
2018-05-16T08:21:24.828Z,4.32
2018-05-16T08:23:52.249Z,4.97
2018-05-16T08:26:19.665Z,3.87
2018-05-16T08:28:47.084Z,5.05
2018-05-16T08:31:14.526Z,5.10
2018-05-16T08:33:41.975Z,4.97
2018-05-16T08:36:09.449Z,4.40
2018-05-16T08:38:36.864Z,5.20
2018-05-16T08:41:04.387Z,4.87
2018-05-16T08:43:31.817Z,5.60
2018-05-16T08:46:00.749Z,5.10
2018-05-16T08:48:28.920Z,7.07
2018-05-16T08:50:57.108Z,4.80
2018-05-16T08:53:24.534Z,5.97
2018-05-16T08:55:52.741Z,5.25
2018-05-16T08:58:20.166Z,5.10
2018-05-16T09:00:47.593Z,5.10
2018-05-16T09:03:14.998Z,5.90
2018-05-16T09:05:42.410Z,6.00
2018-05-16T09:08:09.829Z,5.65
2018-05-16T09:10:37.345Z,6.37
2018-05-16T09:13:04.821Z,5.47
2018-05-16T09:15:32.233Z,4.80
2018-05-16T09:17:59.752Z,4.70
2018-05-16T09:20:27.169Z,5.37
2018-05-16T09:22:54.586Z,4.72
2018-05-16T09:25:22.760Z,5.32
2018-05-16T09:27:50.970Z,4.70
2018-05-16T09:30:18.381Z,4.60
2018-05-16T09:32:45.808Z,5.00
2018-05-16T09:35:13.224Z,5.62
2018-05-16T09:37:40.656Z,5.03
2018-05-16T09:40:08.117Z,5.20
2018-05-16T09:42:35.540Z,5.10
2018-05-16T09:45:02.950Z,5.05
2018-05-16T09:47:31.119Z,5.22
2018-05-16T09:49:59.333Z,4.90
2018-05-16T09:52:26.755Z,4.45
2018-05-16T09:54:54.941Z,4.90
2018-05-16T09:57:22.357Z,4.75
2018-05-16T09:59:49.829Z,4.95
2018-05-16T10:02:17.236Z,5.40
2018-05-16T10:04:44.655Z,4.82
2018-05-16T10:07:12.077Z,4.47
2018-05-16T10:09:39.507Z,4.55
2018-05-16T10:12:06.896Z,4.85
2018-05-16T10:14:34.316Z,4.62
2018-05-16T10:17:02.580Z,4.90
2018-05-16T10:19:29.913Z,5.07
2018-05-16T10:21:57.321Z,5.60
2018-05-16T10:24:24.746Z,5.70
2018-05-16T10:26:52.161Z,4.97
2018-05-16T10:29:20.348Z,5.30
2018-05-16T10:31:47.769Z,4.65
2018-05-16T10:34:15.185Z,5.47
2018-05-16T10:36:42.705Z,5.30
2018-05-16T10:39:10.148Z,5.18
2018-05-16T10:41:37.572Z,5.20
2018-05-16T10:44:04.961Z,5.15
2018-05-16T10:46:32.386Z,5.18
2018-05-16T10:48:59.805Z,5.20
2018-05-16T10:51:27.230Z,5.07
2018-05-16T10:53:54.647Z,5.07
2018-05-16T10:56:22.066Z,4.95
2018-05-16T10:58:49.472Z,5.03
2018-05-16T11:01:16.920Z,5.18
2018-05-16T11:03:44.328Z,4.47
2018-05-16T11:06:12.529Z,4.12
2018-05-16T11:08:40.716Z,4.70
2018-05-16T11:11:08.897Z,4.40
2018-05-16T11:13:37.077Z,4.60
2018-05-16T11:16:04.609Z,4.60
2018-05-16T11:18:32.017Z,4.60
2018-05-16T11:21:00.205Z,4.10
2018-05-16T11:23:28.380Z,5.03
2018-05-16T11:25:55.799Z,4.57
2018-05-16T11:28:24.026Z,4.37
2018-05-16T11:30:51.436Z,4.93
2018-05-16T11:33:18.916Z,5.07
2018-05-16T11:35:46.332Z,4.80
2018-05-16T11:38:13.745Z,5.25
2018-05-16T11:40:41.200Z,4.60
2018-05-16T11:43:09.382Z,3.90
2018-05-16T11:45:36.802Z,4.50
2018-05-16T11:48:04.213Z,4.53
2018-05-16T11:50:31.781Z,4.70
2018-05-16T11:52:59.201Z,4.87
2018-05-16T11:55:26.617Z,5.50
2018-05-16T11:57:54.040Z,4.72
2018-05-16T12:00:21.452Z,4.55
2018-05-16T12:02:48.939Z,4.45
2018-05-16T12:05:16.280Z,5.28
2018-05-16T12:07:43.805Z,4.70
2018-05-16T12:10:11.221Z,5.20
2018-05-16T12:12:38.641Z,5.28
2018-05-16T12:15:06.049Z,4.62
2018-05-16T12:17:33.491Z,5.00
2018-05-16T12:20:01.657Z,5.30
2018-05-16T12:22:29.841Z,4.32
2018-05-16T12:24:58.021Z,4.90
2018-05-16T12:27:26.210Z,4.40
2018-05-16T12:29:54.388Z,3.53
2018-05-16T12:32:22.581Z,4.03
2018-05-16T12:34:49.994Z,3.78
2018-05-16T12:37:17.428Z,4.80
2018-05-16T12:39:45.605Z,4.32
2018-05-16T12:42:13.797Z,4.00
2018-05-16T12:44:42.010Z,3.90
2018-05-16T12:47:09.440Z,4.10
2018-05-16T12:49:36.845Z,4.00
2018-05-16T12:52:04.314Z,3.80
2018-05-16T12:54:31.754Z,4.15
2018-05-16T12:56:59.177Z,3.67
2018-05-16T12:59:26.590Z,4.65
2018-05-16T13:01:53.997Z,4.03
2018-05-16T13:04:21.413Z,4.75
2018-05-16T13:06:48.834Z,3.95
2018-05-16T13:09:16.245Z,3.40
2018-05-16T13:11:43.739Z,3.67
2018-05-16T13:14:11.161Z,3.35
2018-05-16T13:16:38.569Z,4.35
2018-05-16T13:19:05.989Z,4.00
2018-05-16T13:21:33.423Z,4.03
2018-05-16T13:24:00.921Z,3.70
2018-05-16T13:26:29.077Z,3.33
2018-05-16T13:28:57.263Z,3.40
2018-05-16T13:31:25.478Z,3.17
2018-05-16T13:33:52.898Z,2.92
2018-05-16T13:36:20.394Z,3.20
2018-05-16T13:38:47.731Z,2.80
2018-05-16T13:41:15.141Z,3.47
2018-05-16T13:43:42.561Z,3.30
2018-05-16T13:46:09.974Z,3.53
2018-05-16T13:48:38.173Z,3.45
2018-05-16T13:51:05.593Z,3.20
2018-05-16T13:53:33.014Z,3.60
2018-05-16T13:56:00.489Z,4.00
2018-05-16T13:58:27.959Z,3.92
2018-05-16T14:00:55.373Z,3.83
2018-05-16T14:03:22.793Z,3.90
2018-05-16T14:05:50.208Z,3.75
2018-05-16T14:08:17.621Z,3.90
2018-05-16T14:10:45.045Z,4.15
2018-05-16T14:13:12.457Z,4.35
2018-05-16T14:15:40.648Z,4.03
2018-05-16T14:18:08.059Z,4.03
2018-05-16T14:20:35.492Z,4.40
2018-05-16T14:23:02.972Z,3.90
2018-05-16T14:25:30.413Z,5.00
2018-05-16T14:27:58.601Z,4.18
2018-05-16T14:30:26.857Z,4.43
2018-05-16T14:32:54.277Z,4.45
2018-05-16T14:35:21.688Z,4.20
2018-05-16T14:37:49.097Z,4.22
2018-05-16T14:40:17.276Z,4.32
2018-05-16T14:42:45.480Z,4.20
2018-05-16T14:45:12.886Z,4.18
2018-05-16T14:47:40.414Z,4.53
2018-05-16T14:50:07.826Z,5.25
2018-05-16T14:52:35.241Z,5.45
2018-05-16T14:55:03.422Z,4.62
2018-05-16T14:57:30.849Z,5.62
2018-05-16T14:59:58.266Z,5.05
2018-05-16T15:02:26.447Z,5.10
2018-05-16T15:04:53.865Z,5.10
2018-05-16T15:07:21.304Z,6.75
2018-05-16T15:09:48.697Z,6.12
2018-05-16T15:12:16.121Z,5.82
2018-05-16T15:14:43.585Z,5.40
2018-05-16T15:17:10.949Z,5.30
2018-05-16T15:19:38.372Z,5.55
2018-05-16T15:22:05.822Z,5.87
2018-05-16T15:24:34.037Z,5.32
2018-05-16T15:27:01.509Z,6.32
2018-05-16T15:29:28.922Z,5.60
2018-05-16T15:31:56.353Z,5.22
2018-05-16T15:34:23.765Z,5.57
2018-05-16T15:36:51.969Z,5.75
2018-05-16T15:39:20.140Z,5.85
2018-05-16T15:41:47.576Z,5.35
2018-05-16T15:44:14.997Z,6.12
2018-05-16T15:46:43.225Z,5.72
2018-05-16T15:49:11.357Z,6.32
2018-05-16T15:51:39.540Z,6.82
2018-05-16T15:54:06.956Z,6.60
2018-05-16T15:56:34.419Z,5.93
2018-05-16T15:59:01.893Z,6.15
2018-05-16T16:01:29.309Z,6.80
2018-05-16T16:03:56.730Z,6.35
2018-05-16T16:06:24.153Z,6.62
2018-05-16T16:08:51.583Z,6.90
2018-05-16T16:11:18.997Z,6.35
2018-05-16T16:13:47.267Z,6.32
2018-05-16T16:16:14.593Z,5.80
2018-05-16T16:18:42.019Z,5.12
2018-05-16T16:21:09.429Z,5.35
2018-05-16T16:23:36.860Z,4.15
2018-05-16T16:26:04.368Z,3.70
2018-05-16T16:28:31.789Z,3.40
2018-05-16T16:30:59.961Z,4.65
2018-05-16T16:33:27.489Z,4.10
2018-05-16T16:35:54.964Z,4.37
2018-05-16T16:38:22.397Z,3.50
2018-05-16T16:40:50.581Z,4.12
2018-05-16T16:43:18.058Z,4.65
2018-05-16T16:45:46.244Z,3.80
2018-05-16T16:48:13.701Z,4.32
2018-05-16T16:50:41.118Z,4.25
2018-05-16T16:53:08.547Z,4.00
2018-05-16T16:55:35.948Z,3.85
2018-05-16T16:58:03.365Z,3.90
2018-05-16T17:00:30.786Z,3.60
2018-05-16T17:02:58.200Z,3.80
2018-05-16T17:05:25.632Z,4.07
2018-05-16T17:07:53.040Z,4.47
2018-05-16T17:10:20.465Z,5.18
2018-05-16T17:12:47.869Z,4.30
2018-05-16T17:15:15.334Z,4.03
2018-05-16T17:17:42.748Z,4.25
2018-05-16T17:20:11.029Z,4.12
2018-05-16T17:22:39.118Z,4.20
2018-05-16T17:25:07.304Z,4.45
2018-05-16T17:27:35.498Z,4.07
2018-05-16T17:30:03.712Z,4.97
2018-05-16T17:32:31.157Z,4.70
2018-05-16T17:34:59.340Z,4.45
2018-05-16T17:37:27.554Z,4.05
2018-05-16T17:39:54.973Z,4.95
2018-05-16T17:42:22.408Z,4.20
2018-05-16T17:44:49.833Z,4.37
2018-05-16T17:47:18.015Z,4.60
2018-05-16T17:49:45.437Z,5.25
2018-05-16T17:52:12.854Z,4.85
2018-05-16T17:54:40.274Z,4.70
2018-05-16T17:57:07.694Z,4.40
2018-05-16T17:59:35.137Z,4.68
2018-05-16T18:02:02.556Z,4.35
2018-05-16T18:04:30.038Z,4.40
2018-05-16T18:06:58.204Z,5.15
2018-05-16T18:09:26.396Z,5.90
2018-05-16T18:11:54.587Z,4.68
2018-05-16T18:14:34.533Z,5.03
2018-05-16T18:17:23.373Z,5.15
2018-05-16T18:19:50.797Z,5.15
2018-05-16T18:22:18.212Z,5.55
2018-05-16T18:24:45.630Z,5.90
2018-05-16T18:27:13.105Z,5.53
2018-05-16T18:29:40.522Z,5.60
2018-05-16T18:32:07.942Z,5.43
2018-05-16T18:34:35.348Z,5.35
2018-05-16T18:37:02.789Z,5.60
2018-05-16T18:39:30.196Z,5.75
2018-05-16T18:41:57.730Z,5.35
2018-05-16T18:44:25.232Z,5.28
2018-05-16T18:46:52.631Z,6.25
2018-05-16T18:49:21.612Z,5.68
2018-05-16T18:51:49.761Z,4.97
2018-05-16T18:54:17.177Z,5.50
2018-05-16T18:56:44.605Z,5.53
2018-05-16T18:59:12.026Z,6.20
2018-05-16T19:01:39.449Z,6.40
2018-05-16T19:04:06.901Z,7.85
2018-05-16T19:06:34.329Z,5.87
2018-05-16T19:09:01.736Z,5.28
2018-05-16T19:11:29.153Z,5.87
2018-05-16T19:13:56.569Z,4.95
2018-05-16T19:16:23.989Z,6.50
2018-05-16T19:18:51.411Z,5.70
2018-05-16T19:21:18.889Z,6.45
2018-05-16T19:23:46.319Z,6.03
2018-05-16T19:26:13.720Z,6.28
2018-05-16T19:28:41.140Z,5.90
2018-05-16T19:31:08.583Z,6.05
2018-05-16T19:33:35.997Z,5.93
2018-05-16T19:36:03.418Z,7.00
2018-05-16T19:38:30.841Z,5.70
2018-05-16T19:40:59.022Z,6.70
2018-05-16T19:43:26.445Z,6.65
2018-05-16T19:45:53.906Z,6.87
2018-05-16T19:48:21.312Z,6.90
2018-05-16T19:50:48.732Z,6.35
2018-05-16T19:53:16.207Z,6.68
2018-05-16T19:55:43.613Z,6.55
2018-05-16T19:58:11.033Z,7.82
2018-05-16T20:00:39.214Z,6.80
2018-05-16T20:03:07.417Z,7.37
2018-05-16T20:05:34.832Z,6.12
2018-05-16T20:08:02.265Z,7.35
2018-05-16T20:10:29.681Z,7.00
2018-05-16T20:12:57.095Z,7.07
2018-05-16T20:15:24.516Z,7.70
2018-05-16T20:17:51.948Z,7.43
2018-05-16T20:20:19.372Z,7.12
2018-05-16T20:22:47.557Z,7.50
2018-05-16T20:25:15.778Z,7.57
2018-05-16T20:27:43.241Z,6.50
2018-05-16T20:30:10.660Z,7.70
2018-05-16T20:32:38.084Z,7.07
2018-05-16T20:35:05.526Z,7.20
2018-05-16T20:37:33.708Z,7.57
2018-05-16T20:40:01.319Z,6.57
2018-05-16T20:42:28.625Z,7.20
2018-05-16T20:44:56.054Z,7.20
2018-05-16T20:47:23.470Z,6.85
2018-05-16T20:49:50.897Z,8.68
2018-05-16T20:52:18.362Z,7.47
2018-05-16T20:54:45.824Z,7.15
2018-05-16T20:57:13.238Z,6.93
2018-05-16T20:59:40.668Z,7.40
2018-05-16T21:02:08.082Z,7.40
2018-05-16T21:04:35.522Z,7.05
2018-05-16T21:07:02.932Z,7.95
2018-05-16T21:09:30.367Z,7.78
2018-05-16T21:11:57.782Z,7.87
2018-05-16T21:14:25.205Z,8.13
2018-05-16T21:16:52.629Z,7.30
2018-05-16T21:19:20.846Z,6.95
2018-05-16T21:21:48.286Z,7.37
2018-05-16T21:24:16.500Z,7.10
2018-05-16T21:26:43.921Z,7.10
2018-05-16T21:29:11.440Z,7.70
2018-05-16T21:31:38.865Z,7.97
2018-05-16T21:34:06.268Z,8.07
2018-05-16T21:36:33.693Z,7.70
2018-05-16T21:39:01.106Z,7.62
2018-05-16T21:41:28.529Z,7.95
2018-05-16T21:43:55.953Z,8.50
2018-05-16T21:46:23.372Z,9.38
2018-05-16T21:48:50.793Z,8.35
2018-05-16T21:51:18.215Z,8.55
2018-05-16T21:53:45.629Z,7.95
2018-05-16T21:56:13.050Z,7.70
2018-05-16T21:58:40.561Z,8.07
2018-05-16T22:01:08.041Z,8.70
2018-05-16T22:03:35.448Z,8.25
2018-05-16T22:06:02.873Z,8.82
2018-05-16T22:08:30.288Z,8.45
2018-05-16T22:10:57.711Z,8.85
2018-05-16T22:13:25.144Z,8.35
2018-05-16T22:15:52.554Z,8.52
2018-05-16T22:18:19.973Z,8.73
2018-05-16T22:20:47.397Z,9.20
2018-05-16T22:23:14.812Z,9.90
2018-05-16T22:25:42.233Z,9.68
2018-05-16T22:28:09.698Z,8.48
2018-05-16T22:30:42.777Z,9.18
2018-05-16T22:33:15.978Z,8.70
2018-05-16T22:35:49.874Z,9.45
2018-05-16T22:38:23.040Z,8.95
2018-05-16T22:40:56.077Z,10.25
2018-05-16T22:43:23.498Z,9.35
2018-05-16T22:45:54.737Z,9.18
2018-05-16T22:48:22.932Z,9.82
2018-05-16T22:50:51.113Z,11.00
2018-05-16T22:53:19.301Z,10.10
2018-05-16T22:55:47.516Z,9.95
2018-05-16T22:58:14.941Z,10.82
2018-05-16T23:00:42.374Z,11.07
2018-05-16T23:03:09.793Z,12.00
2018-05-16T23:05:37.973Z,12.90
2018-05-16T23:08:06.169Z,11.68
2018-05-16T23:10:34.357Z,10.57
2018-05-16T23:13:02.575Z,11.60
2018-05-16T23:15:30.142Z,11.38
2018-05-16T23:17:57.564Z,10.25
2018-05-16T23:20:25.076Z,9.82
2018-05-16T23:22:53.180Z,10.43
2018-05-16T23:25:20.597Z,10.75
2018-05-16T23:27:48.019Z,11.25
2018-05-16T23:30:15.470Z,12.77
2018-05-16T23:32:42.889Z,11.85
2018-05-16T23:35:10.318Z,10.90
2018-05-16T23:37:37.776Z,14.30
2018-05-16T23:40:05.209Z,13.98
2018-05-16T23:42:32.722Z,15.45
2018-05-16T23:45:00.144Z,15.13
2018-05-16T23:47:27.568Z,16.05
2018-05-16T23:49:54.997Z,17.27
2018-05-16T23:52:22.505Z,15.65
2018-05-16T23:54:49.934Z,14.07
2018-05-16T23:57:18.122Z,13.60
2018-05-16T23:59:45.541Z,13.45
